Time;durP1;ratioP1;P1;durP2;ratioP2;P2;SDS_P1;SDS_P2;PMS_P1;PMS_P2;Temp;Humidity;BMP_temperature;BMP_pressure;BME280_temperature;BME280_humidity;BME280_pressure;Samples;Min_cycle;Max_cycle;Signal;HPM_P1;HPM_P2
2022/03/16 00:00:27;;;;;;;8.10;7.17;;;3.90;99.90;;;;;;4917329;29;20190;-76
2022/03/16 00:02:53;;;;;;;9.00;7.97;;;3.90;99.90;;;;;;4917723;29;20179;-76
2022/03/16 00:05:18;;;;;;;9.57;8.00;;;3.80;99.90;;;;;;4916157;29;20225;-76
2022/03/16 00:07:44;;;;;;;11.93;9.20;;;3.90;99.90;;;;;;4916379;29;20187;-76
2022/03/16 00:10:11;;;;;;;9.23;7.97;;;3.90;99.90;;;;;;4917406;29;20212;-76
2022/03/16 00:12:38;;;;;;;8.73;6.90;;;3.80;99.90;;;;;;4917654;29;20259;-76
2022/03/16 00:15:05;;;;;;;7.57;6.87;;;3.60;99.90;;;;;;4915980;29;20238;-76
2022/03/16 00:17:31;;;;;;;8.90;6.97;;;3.60;99.90;;;;;;4915928;29;20214;-76
2022/03/16 00:19:57;;;;;;;8.00;6.87;;;3.60;99.90;;;;;;4918089;29;20292;-76
2022/03/16 00:22:22;;;;;;;8.13;6.73;;;3.50;99.90;;;;;;4917333;29;20175;-76
2022/03/16 00:24:48;;;;;;;8.87;7.17;;;3.50;99.90;;;;;;4915946;29;20697;-76
2022/03/16 00:27:13;;;;;;;8.40;6.80;;;3.40;99.90;;;;;;4917151;29;20189;-76
2022/03/16 00:29:39;;;;;;;8.73;7.57;;;3.40;99.90;;;;;;4916732;29;20182;-76
2022/03/16 00:32:05;;;;;;;8.40;7.50;;;3.20;99.90;;;;;;4915934;29;20187;-76
2022/03/16 00:34:31;;;;;;;8.63;7.60;;;3.20;99.90;;;;;;4917321;29;20191;-76
2022/03/16 00:36:57;;;;;;;8.53;7.33;;;3.20;99.90;;;;;;4916600;29;20214;-76
2022/03/16 00:39:23;;;;;;;10.30;8.30;;;3.20;99.90;;;;;;4916888;29;20274;-76
2022/03/16 00:41:48;;;;;;;11.27;9.07;;;3.20;99.90;;;;;;4917014;29;20207;-76
2022/03/16 00:44:14;;;;;;;11.43;9.90;;;3.20;99.90;;;;;;4916923;29;20190;-76
2022/03/16 00:46:41;;;;;;;13.80;9.20;;;3.20;99.90;;;;;;4916034;29;20229;-76
2022/03/16 00:49:06;;;;;;;13.10;9.83;;;3.10;99.90;;;;;;4915779;29;20191;-76
2022/03/16 00:51:32;;;;;;;13.07;9.20;;;3.20;99.90;;;;;;4916912;29;20179;-76
2022/03/16 00:53:58;;;;;;;12.73;9.77;;;3.20;99.90;;;;;;4917187;29;20210;-76
2022/03/16 00:56:24;;;;;;;12.53;9.53;;;3.30;99.90;;;;;;4916860;29;20587;-76
2022/03/16 00:58:49;;;;;;;11.30;9.23;;;3.20;99.90;;;;;;4916903;29;20172;-76
2022/03/16 01:01:15;;;;;;;12.60;9.43;;;3.20;99.90;;;;;;4916898;29;20190;-76
2022/03/16 01:03:41;;;;;;;13.17;9.23;;;3.10;99.90;;;;;;4915703;29;20670;-76
2022/03/16 01:06:15;;;;;;;11.73;8.63;;;2.90;99.90;;;;;;4920000;29;20250;-76
2022/03/16 01:08:44;;;;;;;10.13;7.93;;;2.80;99.90;;;;;;4920437;29;20159;-76
2022/03/16 01:11:10;;;;;;;10.40;8.53;;;2.70;99.90;;;;;;4919252;29;20273;-76
2022/03/16 01:13:37;;;;;;;11.33;8.93;;;2.70;99.90;;;;;;4920282;29;20267;-76
2022/03/16 01:16:02;;;;;;;13.17;9.20;;;2.70;99.90;;;;;;4918899;29;20242;-76
2022/03/16 01:18:28;;;;;;;10.97;8.83;;;2.70;99.90;;;;;;4919300;29;20207;-76
2022/03/16 01:20:53;;;;;;;9.73;8.10;;;2.70;99.90;;;;;;4918924;29;20179;-76
2022/03/16 01:23:19;;;;;;;9.53;8.17;;;2.60;99.90;;;;;;4919350;29;20178;-76
2022/03/16 01:25:45;;;;;;;10.37;8.37;;;2.60;99.90;;;;;;4919116;29;20282;-76
2022/03/16 01:28:10;;;;;;;9.03;7.43;;;2.60;99.90;;;;;;4918858;29;20218;-76
2022/03/16 01:30:36;;;;;;;10.50;8.03;;;2.60;99.90;;;;;;4920193;29;20194;-76
2022/03/16 01:33:01;;;;;;;10.60;8.30;;;2.60;99.90;;;;;;4920257;29;20183;-76
2022/03/16 01:35:27;;;;;;;9.93;8.03;;;2.70;99.90;;;;;;4919839;29;20202;-76
2022/03/16 01:37:53;;;;;;;10.17;7.93;;;2.80;99.90;;;;;;4918747;29;20313;-76
2022/03/16 01:40:18;;;;;;;8.90;7.63;;;2.70;99.90;;;;;;4919829;29;20182;-76
2022/03/16 01:42:44;;;;;;;10.27;8.27;;;2.60;99.90;;;;;;4919822;29;20190;-76
2022/03/16 01:45:09;;;;;;;10.07;8.23;;;2.40;99.90;;;;;;4918624;29;20203;-76
2022/03/16 01:47:35;;;;;;;11.93;8.50;;;2.50;99.90;;;;;;4919005;29;20542;-76
2022/03/16 01:50:02;;;;;;;10.27;8.33;;;2.60;99.90;;;;;;4918525;29;20191;-76
2022/03/16 01:52:29;;;;;;;10.27;8.70;;;2.60;99.90;;;;;;4918740;29;20187;-76
2022/03/16 01:54:56;;;;;;;11.63;9.30;;;2.70;99.90;;;;;;4918669;29;20218;-76
2022/03/16 01:57:23;;;;;;;10.87;8.90;;;2.70;99.90;;;;;;4918347;29;20266;-76
2022/03/16 01:59:49;;;;;;;11.10;9.27;;;2.80;99.90;;;;;;4918653;29;20187;-76
2022/03/16 02:02:15;;;;;;;10.70;8.70;;;2.80;99.90;;;;;;4919757;29;20246;-76
2022/03/16 02:04:41;;;;;;;10.63;8.50;;;2.70;99.90;;;;;;4918423;29;20187;-76
2022/03/16 02:07:07;;;;;;;10.30;8.00;;;2.60;99.90;;;;;;4918173;29;20191;-76
2022/03/16 02:09:33;;;;;;;9.57;8.43;;;2.40;99.90;;;;;;4918476;29;20187;-76
2022/03/16 02:11:59;;;;;;;9.63;8.53;;;2.40;99.90;;;;;;4918435;29;20282;-76
2022/03/16 02:14:25;;;;;;;10.83;8.43;;;2.40;99.90;;;;;;4918022;29;20285;-76
2022/03/16 02:16:51;;;;;;;13.00;9.17;;;2.20;99.90;;;;;;4917568;29;20270;-76
2022/03/16 02:19:17;;;;;;;12.87;10.20;;;2.30;99.90;;;;;;4918038;29;20183;-76
2022/03/16 02:21:46;;;;;;;15.37;10.23;;;2.30;99.90;;;;;;4918290;29;20534;-76
2022/03/16 02:24:12;;;;;;;12.03;9.77;;;2.30;99.90;;;;;;4918211;29;20238;-76
2022/03/16 02:26:38;;;;;;;14.30;10.30;;;2.20;99.90;;;;;;4917787;29;20210;-76
2022/03/16 02:29:03;;;;;;;14.27;10.77;;;2.20;99.90;;;;;;4918587;29;20187;-76
2022/03/16 02:31:29;;;;;;;14.03;10.83;;;2.30;99.90;;;;;;4917878;29;20191;-76
2022/03/16 02:33:55;;;;;;;13.17;10.60;;;2.40;99.90;;;;;;4918029;29;20225;-76
2022/03/16 02:36:20;;;;;;;12.40;9.37;;;2.30;99.90;;;;;;4917912;29;20214;-76
2022/03/16 02:38:46;;;;;;;13.80;10.20;;;2.40;99.90;;;;;;4917512;29;20203;-76
2022/03/16 02:41:12;;;;;;;14.83;10.77;;;2.20;99.90;;;;;;4917574;29;20558;-76
2022/03/16 02:43:38;;;;;;;15.90;11.93;;;2.30;99.90;;;;;;4917565;29;20191;-76
2022/03/16 02:46:05;;;;;;;13.03;10.57;;;2.30;99.90;;;;;;4919019;29;20202;-76
2022/03/16 02:48:31;;;;;;;13.37;10.80;;;2.40;99.90;;;;;;4917455;29;20201;-76
2022/03/16 02:50:57;;;;;;;20.77;15.47;;;2.40;99.90;;;;;;4917435;29;20187;-76
2022/03/16 02:53:23;;;;;;;21.87;15.83;;;2.40;99.90;;;;;;4917293;29;20658;-76
2022/03/16 02:55:48;;;;;;;19.00;13.93;;;2.50;99.90;;;;;;4917238;29;20202;-76
2022/03/16 02:58:15;;;;;;;18.93;13.73;;;2.50;99.90;;;;;;4917826;29;20187;-76
2022/03/16 03:00:41;;;;;;;17.60;13.13;;;2.50;99.90;;;;;;4917523;29;20214;-76
2022/03/16 03:03:07;;;;;;;16.73;12.67;;;2.50;99.90;;;;;;4917115;29;20183;-76
2022/03/16 03:05:33;;;;;;;19.27;13.80;;;2.60;99.90;;;;;;4917316;29;20261;-76
2022/03/16 03:07:59;;;;;;;15.87;12.13;;;2.70;99.90;;;;;;4917063;29;20222;-76
2022/03/16 03:10:25;;;;;;;15.87;12.20;;;2.70;99.90;;;;;;4917047;29;20187;-76
2022/03/16 03:12:51;;;;;;;16.67;12.80;;;2.70;99.90;;;;;;4916970;29;20187;-76
2022/03/16 03:15:17;;;;;;;16.47;12.77;;;2.70;99.90;;;;;;4918104;29;20202;-76
2022/03/16 03:17:43;;;;;;;16.27;12.73;;;2.70;99.90;;;;;;4917406;29;20281;-76
2022/03/16 03:20:09;;;;;;;15.33;12.23;;;2.70;99.90;;;;;;4916959;29;20715;-76
2022/03/16 03:22:35;;;;;;;16.27;11.63;;;2.70;99.90;;;;;;4917917;29;20195;-76
2022/03/16 03:25:01;;;;;;;14.10;10.90;;;2.60;99.90;;;;;;4918013;29;20733;-76
2022/03/16 03:27:27;;;;;;;15.07;11.47;;;2.50;99.90;;;;;;4917256;29;20548;-76
2022/03/16 03:29:53;;;;;;;15.00;11.00;;;2.50;99.90;;;;;;4918216;29;20274;-76
2022/03/16 03:32:19;;;;;;;13.60;10.43;;;2.50;99.90;;;;;;4916920;29;20186;-76
2022/03/16 03:34:47;;;;;;;14.47;10.13;;;2.40;99.90;;;;;;4917230;29;20214;-76
2022/03/16 03:37:17;;;;;;;15.07;10.90;;;2.40;99.90;;;;;;4916485;29;20218;-76
2022/03/16 03:39:43;;;;;;;14.70;11.03;;;2.30;99.90;;;;;;4916589;29;20641;-76
2022/03/16 03:42:09;;;;;;;13.50;10.73;;;2.30;99.90;;;;;;4917606;29;20246;-76
2022/03/16 03:44:37;;;;;;;13.33;10.37;;;2.30;99.90;;;;;;4917288;29;20183;-76
2022/03/16 03:47:05;;;;;;;13.97;10.40;;;2.20;99.90;;;;;;4916437;29;20183;-76
2022/03/16 03:49:32;;;;;;;11.40;9.33;;;2.20;99.90;;;;;;4917932;29;20183;-76
2022/03/16 03:51:58;;;;;;;15.03;9.27;;;2.20;99.90;;;;;;4916604;29;20769;-76
2022/03/16 03:54:24;;;;;;;14.00;9.73;;;2.10;99.90;;;;;;4917565;29;20262;-76
2022/03/16 03:56:49;;;;;;;13.47;10.30;;;2.00;99.90;;;;;;4916132;29;20218;-76
2022/03/16 03:59:15;;;;;;;12.93;10.37;;;1.90;99.90;;;;;;4916315;29;20194;-76
2022/03/16 04:01:40;;;;;;;12.93;9.97;;;2.00;99.90;;;;;;4916680;29;20638;-76
2022/03/16 04:04:07;;;;;;;15.33;10.90;;;2.00;99.90;;;;;;4916196;29;20183;-76
2022/03/16 04:06:33;;;;;;;15.07;11.53;;;2.00;99.90;;;;;;4916067;29;20218;-76
2022/03/16 04:08:59;;;;;;;17.50;13.30;;;2.00;99.90;;;;;;4917339;29;20187;-76
2022/03/16 04:11:24;;;;;;;17.30;11.93;;;2.00;99.90;;;;;;4917296;29;20265;-76
2022/03/16 04:13:50;;;;;;;17.77;13.37;;;2.00;99.90;;;;;;4917286;29;20222;-76
2022/03/16 04:16:15;;;;;;;16.83;12.47;;;2.10;99.90;;;;;;4916231;29;20250;-76
2022/03/16 04:18:41;;;;;;;37.77;21.77;;;2.10;99.90;;;;;;4916601;29;20227;-76
2022/03/16 04:21:06;;;;;;;68.13;37.90;;;2.20;99.90;;;;;;4916934;29;20234;-76
2022/03/16 04:23:32;;;;;;;44.60;26.47;;;2.20;99.90;;;;;;4917039;29;20183;-76
2022/03/16 04:25:58;;;;;;;29.43;19.53;;;2.20;99.90;;;;;;4915928;29;20274;-76
2022/03/16 04:28:23;;;;;;;24.37;17.03;;;2.20;99.90;;;;;;4917234;29;20187;-76
2022/03/16 04:30:49;;;;;;;21.77;15.40;;;2.20;99.90;;;;;;4915906;29;20198;-76
2022/03/16 04:33:14;;;;;;;21.77;15.43;;;2.20;99.90;;;;;;4917184;29;20183;-76
2022/03/16 04:35:40;;;;;;;20.63;15.03;;;2.30;99.90;;;;;;4916119;29;20214;-76
2022/03/16 04:38:08;;;;;;;18.23;13.63;;;2.20;99.90;;;;;;4917242;29;20226;-76
2022/03/16 04:40:34;;;;;;;17.10;12.87;;;2.20;99.90;;;;;;4919839;29;20183;-76
2022/03/16 04:42:59;;;;;;;14.60;11.77;;;2.20;99.90;;;;;;4921184;29;20198;-76
2022/03/16 04:45:25;;;;;;;15.77;12.47;;;2.10;99.90;;;;;;4919681;29;20202;-76
2022/03/16 04:47:51;;;;;;;15.50;11.77;;;2.00;99.90;;;;;;4921245;29;20183;-76
2022/03/16 04:50:18;;;;;;;17.27;11.57;;;2.00;99.90;;;;;;4921340;29;20195;-76
2022/03/16 04:52:48;;;;;;;17.37;14.07;;;2.10;99.90;;;;;;4923731;29;20179;-76
2022/03/16 04:55:15;;;;;;;19.50;12.77;;;2.00;99.90;;;;;;4921175;29;20206;-76
2022/03/16 04:57:41;;;;;;;16.50;11.90;;;2.00;99.90;;;;;;4923239;29;20218;-76
2022/03/16 05:00:08;;;;;;;53.07;11.20;;;1.90;99.90;;;;;;4923022;29;20246;-78
2022/03/16 05:02:34;;;;;;;14.47;10.80;;;1.90;99.90;;;;;;4921558;29;20187;-76
2022/03/16 05:05:00;;;;;;;15.10;10.70;;;1.90;99.90;;;;;;4921085;29;20218;-76
2022/03/16 05:07:26;;;;;;;13.77;10.77;;;1.80;99.90;;;;;;4921276;29;20235;-76
2022/03/16 05:09:51;;;;;;;16.67;11.43;;;1.80;99.90;;;;;;4923761;29;20186;-76
2022/03/16 05:12:17;;;;;;;14.33;10.57;;;1.80;99.90;;;;;;4923991;29;20273;-76
2022/03/16 05:14:43;;;;;;;14.43;10.83;;;1.90;99.90;;;;;;4922959;29;20187;-76
2022/03/16 05:17:09;;;;;;;15.10;10.73;;;2.00;99.90;;;;;;4920499;29;20211;-76
2022/03/16 05:19:34;;;;;;;20.90;13.80;;;2.00;99.90;;;;;;4922214;29;20175;-76
2022/03/16 05:22:00;;;;;;;24.83;15.43;;;2.10;99.90;;;;;;4923518;29;20186;-78
2022/03/16 05:24:26;;;;;;;23.30;14.73;;;2.10;99.90;;;;;;4920846;29;20258;-75
2022/03/16 05:26:53;;;;;;;21.60;14.43;;;2.10;99.90;;;;;;4923657;29;20191;-75
2022/03/16 05:29:19;;;;;;;29.13;13.23;;;2.10;99.90;;;;;;4919708;29;20190;-74
2022/03/16 05:31:45;;;;;;;19.40;12.67;;;2.20;99.90;;;;;;4919018;29;20187;-75
2022/03/16 05:34:11;;;;;;;19.60;11.67;;;2.30;99.90;;;;;;4919004;29;20190;-75
2022/03/16 05:36:39;;;;;;;16.23;12.27;;;2.10;99.90;;;;;;4919142;29;20211;-75
2022/03/16 05:39:04;;;;;;;20.53;11.53;;;2.20;99.90;;;;;;4919791;29;20229;-75
2022/03/16 05:41:30;;;;;;;39.53;12.50;;;2.30;99.90;;;;;;4922555;29;20187;-75
2022/03/16 05:43:56;;;;;;;16.07;11.17;;;2.20;99.90;;;;;;4920170;29;20183;-74
2022/03/16 05:46:22;;;;;;;15.37;10.60;;;2.20;99.90;;;;;;4918860;29;20203;-76
2022/03/16 05:48:48;;;;;;;15.23;11.27;;;2.20;99.90;;;;;;4919385;29;20179;-75
2022/03/16 05:51:13;;;;;;;22.17;11.40;;;2.20;99.90;;;;;;4917708;29;20191;-75
2022/03/16 05:53:39;;;;;;;21.70;12.50;;;2.30;99.90;;;;;;4918480;29;20203;-75
2022/03/16 05:56:07;;;;;;;21.60;11.93;;;2.40;99.90;;;;;;4919481;29;20214;-75
2022/03/16 05:58:32;;;;;;;15.50;12.13;;;2.50;99.90;;;;;;4919250;29;20258;-75
2022/03/16 06:00:58;;;;;;;21.47;10.83;;;2.60;99.90;;;;;;4918294;29;20205;-75
2022/03/16 06:03:43;;;;;;;11.43;9.73;;;2.70;99.90;;;;;;4919748;29;20183;-75
2022/03/16 06:06:08;;;;;;;35.03;9.40;;;2.70;99.90;;;;;;4919668;29;20685;-75
2022/03/16 06:08:34;;;;;;;26.13;8.77;;;2.80;99.90;;;;;;4918178;29;20278;-75
2022/03/16 06:10:59;;;;;;;94.40;11.77;;;2.70;99.90;;;;;;4918081;29;20186;-75
2022/03/16 06:13:26;;;;;;;23.20;9.40;;;2.40;99.90;;;;;;4918056;29;20231;-74
2022/03/16 06:15:51;;;;;;;55.13;9.33;;;2.20;99.90;;;;;;4917904;29;20199;-75
2022/03/16 06:18:17;;;;;;;22.30;9.73;;;2.00;99.90;;;;;;4918031;29;20326;-75
2022/03/16 06:20:42;;;;;;;39.30;10.30;;;1.90;99.90;;;;;;4917926;29;20175;-76
2022/03/16 06:23:08;;;;;;;61.87;11.30;;;1.90;99.90;;;;;;4919156;29;20179;-75
2022/03/16 06:25:35;;;;;;;15.83;10.53;;;2.00;99.90;;;;;;4919207;29;20203;-75
2022/03/16 06:28:01;;;;;;;22.63;12.80;;;2.10;99.90;;;;;;4917847;29;20182;-74
2022/03/16 06:30:27;;;;;;;23.50;12.53;;;2.20;99.90;;;;;;4917690;29;20182;-74
2022/03/16 06:32:52;;;;;;;19.03;13.37;;;2.30;99.90;;;;;;4917746;29;20274;-74
2022/03/16 06:35:36;;;;;;;38.47;13.87;;;2.30;99.90;;;;;;4917740;29;20206;-75
2022/03/16 06:38:02;;;;;;;19.33;13.27;;;2.40;99.90;;;;;;4918845;29;20254;-75
2022/03/16 06:40:27;;;;;;;17.20;12.50;;;2.50;99.90;;;;;;4917934;29;20182;-75
2022/03/16 06:42:58;;;;;;;38.40;13.70;;;2.40;99.90;;;;;;4917340;29;20234;-75
2022/03/16 06:45:26;;;;;;;16.47;12.03;;;2.50;99.90;;;;;;4917902;29;20199;-75
2022/03/16 06:47:55;;;;;;;19.80;13.27;;;2.40;99.90;;;;;;4918760;29;20183;-74
2022/03/16 06:50:21;;;;;;;17.03;12.40;;;2.50;99.90;;;;;;4917483;29;20273;-74
2022/03/16 06:52:47;;;;;;;22.23;13.13;;;2.50;99.90;;;;;;4914658;29;20190;-75
2022/03/16 06:55:13;;;;;;;26.87;12.97;;;2.70;99.90;;;;;;4899438;29;20215;-76
2022/03/16 06:57:39;;;;;;;20.13;14.70;;;2.60;99.90;;;;;;4898168;29;20243;-76
2022/03/16 07:00:08;;;;;;;18.37;14.17;;;2.70;99.90;;;;;;4898700;29;20180;-75
2022/03/16 07:02:53;;;;;;;21.70;13.73;;;2.90;99.90;;;;;;4899484;29;20250;-75
2022/03/16 07:05:20;;;;;;;20.93;15.40;;;2.70;99.90;;;;;;4898093;29;20230;-76
2022/03/16 07:07:45;;;;;;;22.33;13.03;;;2.80;99.90;;;;;;4898266;29;20210;-75
2022/03/16 07:10:11;;;;;;;16.43;13.00;;;2.90;99.90;;;;;;4899114;29;20179;-76
2022/03/16 07:12:36;;;;;;;16.37;11.97;;;3.00;99.90;;;;;;4898800;29;20202;-75
2022/03/16 07:15:02;;;;;;;18.37;13.80;;;2.90;99.90;;;;;;4899230;29;20728;-75
2022/03/16 07:17:28;;;;;;;23.80;19.37;;;3.00;99.90;;;;;;4898289;29;20207;-75
2022/03/16 07:19:53;;;;;;;16.50;13.93;;;3.00;99.90;;;;;;4899441;29;20272;-75
2022/03/16 07:22:19;;;;;;;17.10;13.00;;;3.20;99.90;;;;;;4897797;29;20184;-76
2022/03/16 07:24:45;;;;;;;16.23;11.60;;;3.20;99.90;;;;;;4898051;29;20292;-75
2022/03/16 07:27:12;;;;;;;13.93;11.60;;;3.50;99.90;;;;;;4899221;29;20175;-75
2022/03/16 07:29:38;;;;;;;18.87;11.70;;;3.70;99.90;;;;;;4898978;29;20571;-75
2022/03/16 07:32:04;;;;;;;19.27;12.17;;;3.80;99.90;;;;;;4898022;29;20179;-76
2022/03/16 07:34:30;;;;;;;35.63;14.77;;;3.70;99.90;;;;;;4897595;29;20286;-76
2022/03/16 07:36:56;;;;;;;50.57;17.13;;;3.50;99.90;;;;;;4897813;29;20698;-75
2022/03/16 07:39:21;;;;;;;30.33;14.70;;;3.60;99.90;;;;;;4897662;29;20184;-75
2022/03/16 07:41:47;;;;;;;20.70;15.27;;;3.60;99.90;;;;;;4897942;29;20270;-75
2022/03/16 07:44:14;;;;;;;18.73;14.13;;;3.70;99.90;;;;;;4897424;29;20258;-75
2022/03/16 07:46:40;;;;;;;17.07;13.17;;;3.80;99.90;;;;;;4897514;29;20207;-75
2022/03/16 07:49:06;;;;;;;16.63;11.77;;;3.90;99.90;;;;;;4897449;29;20250;-75
2022/03/16 07:51:32;;;;;;;11.33;10.13;;;4.00;99.90;;;;;;4898919;29;20210;-75
2022/03/16 07:53:57;;;;;;;13.33;9.70;;;4.20;99.90;;;;;;4897833;29;20643;-75
2022/03/16 07:56:23;;;;;;;10.83;9.73;;;4.20;99.90;;;;;;4897604;29;20729;-75
2022/03/16 07:58:48;;;;;;;11.07;9.03;;;4.30;99.90;;;;;;4897745;29;20615;-75
2022/03/16 08:01:14;;;;;;;13.73;9.93;;;4.20;99.90;;;;;;4898553;29;20227;-75
2022/03/16 08:03:39;;;;;;;10.80;9.47;;;4.30;99.90;;;;;;4898499;29;20171;-75
2022/03/16 08:06:05;;;;;;;17.33;11.43;;;4.50;99.90;;;;;;4897429;29;20235;-76
2022/03/16 08:08:31;;;;;;;12.87;10.87;;;4.60;99.90;;;;;;4897347;29;20238;-75
2022/03/16 08:10:58;;;;;;;11.50;10.03;;;4.90;99.90;;;;;;4897230;29;20247;-75
2022/03/16 08:13:24;;;;;;;20.33;11.73;;;5.10;99.90;;;;;;4896743;29;20562;-75
2022/03/16 08:15:49;;;;;;;15.57;12.40;;;5.30;99.90;;;;;;4897000;29;20208;-75
2022/03/16 08:18:15;;;;;;;14.97;12.50;;;5.20;99.90;;;;;;4898299;29;20187;-75
2022/03/16 08:20:41;;;;;;;14.70;12.03;;;5.40;99.90;;;;;;4897108;29;20191;-75
2022/03/16 08:23:06;;;;;;;13.93;11.97;;;5.60;99.90;;;;;;4897640;29;20179;-75
2022/03/16 08:25:32;;;;;;;12.50;11.20;;;5.70;99.90;;;;;;4897022;29;20228;-75
2022/03/16 08:27:59;;;;;;;13.20;11.20;;;5.90;99.90;;;;;;4896988;29;20240;-75
2022/03/16 08:30:24;;;;;;;12.77;11.40;;;5.90;99.90;;;;;;4896884;29;20247;-75
2022/03/16 08:32:50;;;;;;;12.43;11.13;;;6.20;99.90;;;;;;4898188;29;20187;-75
2022/03/16 08:35:16;;;;;;;12.27;10.98;;;6.20;99.90;;;;;;4896930;29;20294;-75
2022/03/16 08:37:42;;;;;;;12.88;11.48;;;6.30;99.90;;;;;;4896771;29;20278;-75
2022/03/16 08:40:08;;;;;;;12.13;10.80;;;6.30;99.90;;;;;;4896838;29;20266;-76
2022/03/16 08:42:34;;;;;;;10.75;9.73;;;6.50;99.90;;;;;;4897209;29;20187;-75
2022/03/16 08:45:01;;;;;;;10.57;9.35;;;6.60;99.90;;;;;;4896935;29;20199;-75
2022/03/16 08:47:26;;;;;;;10.35;9.35;;;6.70;99.90;;;;;;4898111;29;20228;-75
2022/03/16 08:49:54;;;;;;;11.05;9.95;;;6.80;99.90;;;;;;4897887;29;20191;-75
2022/03/16 08:52:21;;;;;;;12.00;10.52;;;6.90;99.90;;;;;;4896734;29;20191;-75
2022/03/16 08:54:47;;;;;;;11.35;10.18;;;6.80;99.90;;;;;;4897918;29;20343;-76
2022/03/16 08:57:14;;;;;;;11.73;10.43;;;6.90;99.90;;;;;;4896717;29;20211;-75
2022/03/16 08:59:41;;;;;;;11.60;10.20;;;6.90;99.90;;;;;;4897218;29;20183;-75
2022/03/16 09:02:07;;;;;;;11.07;9.98;;;6.90;99.90;;;;;;4896736;29;20192;-76
2022/03/16 09:04:34;;;;;;;11.70;10.50;;;6.90;99.90;;;;;;4896642;29;20175;-76
2022/03/16 09:07:00;;;;;;;11.25;10.02;;;7.00;99.90;;;;;;4897554;29;20220;-75
2022/03/16 09:09:25;;;;;;;11.35;10.15;;;7.20;99.90;;;;;;4897267;29;20215;-75
2022/03/16 09:11:52;;;;;;;13.18;11.55;;;7.30;99.90;;;;;;4896700;29;20190;-75
2022/03/16 09:14:17;;;;;;;12.90;11.63;;;7.50;99.90;;;;;;4896559;29;20191;-75
2022/03/16 09:16:47;;;;;;;12.43;11.23;;;7.60;99.90;;;;;;4896903;29;20207;-75
2022/03/16 09:19:20;;;;;;;12.98;11.07;;;7.60;99.90;;;;;;4897774;29;20172;-75
2022/03/16 09:21:47;;;;;;;14.75;11.32;;;7.70;99.90;;;;;;4896557;29;20172;-75
2022/03/16 09:24:13;;;;;;;11.68;10.52;;;7.70;99.90;;;;;;4896486;29;20232;-76
2022/03/16 09:26:42;;;;;;;13.25;11.75;;;7.60;99.90;;;;;;4899917;29;20204;-76
2022/03/16 09:29:09;;;;;;;11.75;10.55;;;7.80;99.90;;;;;;4901445;29;20179;-75
2022/03/16 09:31:37;;;;;;;13.65;11.77;;;8.10;99.90;;;;;;4899970;29;20189;-76
2022/03/16 09:34:07;;;;;;;12.30;11.02;;;8.00;99.90;;;;;;4900666;29;20670;-77
2022/03/16 09:36:42;;;;;;;11.68;10.50;;;7.90;99.90;;;;;;4901523;29;20250;-77
2022/03/16 09:39:08;;;;;;;13.32;11.93;;;7.90;99.90;;;;;;4901404;29;20208;-77
2022/03/16 09:41:36;;;;;;;12.63;11.32;;;7.90;99.90;;;;;;4900408;29;20182;-77
2022/03/16 09:44:02;;;;;;;15.48;12.77;;;7.90;99.90;;;;;;4901163;29;20179;-77
2022/03/16 09:46:32;;;;;;;15.27;12.95;;;7.90;99.90;;;;;;4901195;29;20236;-78
2022/03/16 09:48:59;;;;;;;19.10;14.32;;;8.00;99.90;;;;;;4901838;29;20741;-78
2022/03/16 09:51:34;;;;;;;16.05;13.55;;;8.10;99.90;;;;;;4902028;29;20188;-77
2022/03/16 09:54:00;;;;;;;17.38;14.85;;;8.20;99.90;;;;;;4901701;29;20175;-78
2022/03/16 09:56:26;;;;;;;19.02;15.27;;;8.30;99.90;;;;;;4901137;29;20227;-77
2022/03/16 09:58:51;;;;;;;17.95;14.82;;;8.40;99.90;;;;;;4902761;29;20557;-77
2022/03/16 10:01:18;;;;;;;21.35;16.65;;;8.40;99.90;;;;;;4901886;29;20179;-78
2022/03/16 10:03:48;;;;;;;23.88;18.23;;;8.50;99.90;;;;;;4900416;29;20183;-77
2022/03/16 10:06:16;;;;;;;21.75;16.60;;;8.70;99.90;;;;;;4900093;29;20207;-78
2022/03/16 10:08:42;;;;;;;19.90;14.93;;;8.80;99.90;;;;;;4902339;29;20195;-78
2022/03/16 10:13:57;;;;;;;20.50;16.42;;;9.00;99.90;;;;;;4902726;29;20231;-78
2022/03/16 10:16:24;;;;;;;19.88;15.88;;;9.10;99.90;;;;;;4901130;29;20294;-77
2022/03/16 10:18:55;;;;;;;22.02;17.17;;;9.10;99.90;;;;;;4899832;29;20235;-77
2022/03/16 10:21:23;;;;;;;21.52;16.90;;;9.20;99.90;;;;;;4899203;29;20188;-77
2022/03/16 10:23:48;;;;;;;22.25;17.00;;;9.20;99.90;;;;;;4899986;29;20179;-77
2022/03/16 10:26:19;;;;;;;29.50;21.80;;;9.20;99.90;;;;;;4899185;29;20200;-77
2022/03/16 10:28:47;;;;;;;27.98;20.83;;;9.20;99.90;;;;;;4897852;29;20179;-77
2022/03/16 10:31:15;;;;;;;30.92;20.58;;;9.10;99.90;;;;;;4897414;29;20191;-77
2022/03/16 10:33:53;;;;;;;31.17;20.45;;;9.10;99.90;;;;;;4897925;29;20180;-77
2022/03/16 10:36:24;;;;;;;27.15;20.05;;;9.20;99.90;;;;;;4898787;29;20255;-77
2022/03/16 10:38:54;;;;;;;33.13;22.10;;;9.20;99.90;;;;;;4898935;29;20286;-77
2022/03/16 10:47:14;;;;;;;31.65;22.33;;;9.60;99.90;;;;;;4900270;29;20231;-77
2022/03/16 10:49:40;;;;;;;34.85;23.83;;;9.80;99.90;;;;;;4899547;29;20188;-77
2022/03/16 10:52:11;;;;;;;31.38;23.45;;;9.80;99.90;;;;;;4898731;29;20183;-77
2022/03/16 10:54:37;;;;;;;35.78;23.83;;;9.90;99.90;;;;;;4898643;29;20237;-77
2022/03/16 10:57:10;;;;;;;32.42;23.85;;;10.20;99.90;;;;;;4898536;29;20219;-77
2022/03/16 10:59:37;;;;;;;31.00;22.63;;;10.40;99.90;;;;;;4898707;29;20176;-77
2022/03/16 11:02:04;;;;;;;29.90;22.58;;;10.50;99.90;;;;;;4898550;29;20258;-77
2022/03/16 11:04:31;;;;;;;31.67;23.08;;;10.60;99.90;;;;;;4898415;29;20179;-77
2022/03/16 11:06:59;;;;;;;30.10;21.73;;;10.70;99.90;;;;;;4898812;29;20194;-77
2022/03/16 11:09:25;;;;;;;29.90;21.98;;;10.70;99.90;;;;;;4898503;29;20183;-77
2022/03/16 11:14:36;;;;;;;28.88;22.27;;;10.80;99.90;;;;;;4900013;29;20210;-77
2022/03/16 11:17:03;;;;;;;31.30;22.08;;;10.70;99.90;;;;;;4899563;29;20257;-77
2022/03/16 11:19:30;;;;;;;29.15;21.60;;;10.90;99.90;;;;;;4899048;29;20217;-77
2022/03/16 11:22:01;;;;;;;36.05;23.35;;;10.90;99.90;;;;;;4898398;29;20179;-77
2022/03/16 11:24:32;;;;;;;32.60;21.67;;;11.00;99.90;;;;;;4899578;29;20170;-77
2022/03/16 11:27:40;;;;;;;35.33;22.65;;;11.00;99.90;;;;;;4898623;29;20191;-77
2022/03/16 11:30:19;;;;;;;27.55;21.33;;;11.00;99.90;;;;;;4899139;29;20183;-77
2022/03/16 11:32:48;;;;;;;29.45;21.15;;;11.10;99.90;;;;;;4898185;29;20180;-77
2022/03/16 11:35:18;;;;;;;31.25;22.02;;;11.00;99.90;;;;;;4897986;29;20200;-77
2022/03/16 11:37:49;;;;;;;27.60;20.23;;;11.00;99.90;;;;;;4897977;29;20219;-77
2022/03/16 11:40:24;;;;;;;28.20;20.20;;;11.00;99.90;;;;;;4898296;29;20180;-77
2022/03/16 11:43:06;;;;;;;28.10;21.08;;;11.10;99.90;;;;;;4899303;29;20168;-77
2022/03/16 11:45:41;;;;;;;36.95;22.70;;;11.20;99.90;;;;;;4898186;29;20211;-77
2022/03/16 11:48:31;;;;;;;27.90;20.48;;;11.30;99.90;;;;;;4897649;29;20207;-77
2022/03/16 11:51:09;;;;;;;26.90;21.00;;;11.30;99.90;;;;;;4898493;29;20534;-77
2022/03/16 11:56:23;;;;;;;30.23;21.02;;;11.50;99.90;;;;;;4899680;29;20302;-77
2022/03/16 11:59:17;;;;;;;34.95;20.35;;;11.60;98.00;;;;;;4898024;29;20290;-77
2022/03/16 12:01:49;;;;;;;27.27;19.42;;;11.50;97.60;;;;;;4891233;29;20184;-76
2022/03/16 12:04:22;;;;;;;25.40;19.27;;;11.40;96.50;;;;;;4897955;29;20194;-77
2022/03/16 12:07:44;;;;;;;30.70;20.90;;;11.50;97.10;;;;;;4898616;29;20195;-78
2022/03/16 12:12:51;;;;;;;28.95;20.88;;;11.50;96.60;;;;;;4897679;29;20251;-77
2022/03/16 12:13:47;;;;;;;36.83;22.42;;;11.40;95.90;;;;;;4898222;29;20191;-77
2022/03/16 12:16:18;;;;;;;28.98;20.65;;;11.20;96.00;;;;;;4897151;29;20207;-77
2022/03/16 12:18:46;;;;;;;37.65;22.13;;;11.10;97.00;;;;;;4898767;29;20168;-77
2022/03/16 12:21:14;;;;;;;39.85;20.45;;;11.10;96.50;;;;;;4897484;29;20563;-77
2022/03/16 12:23:52;;;;;;;29.73;19.90;;;11.20;97.30;;;;;;4898539;29;20179;-77
2022/03/16 12:26:26;;;;;;;24.55;18.58;;;11.30;96.10;;;;;;4897279;29;20203;-77
2022/03/16 12:29:03;;;;;;;31.50;20.23;;;11.50;95.80;;;;;;4897651;29;20172;-77
2022/03/16 12:31:30;;;;;;;27.98;19.48;;;11.70;95.60;;;;;;4899989;29;20178;-77
2022/03/16 12:33:56;;;;;;;23.17;18.60;;;11.90;94.70;;;;;;4898685;29;20274;-77
2022/03/16 12:36:28;;;;;;;23.40;18.58;;;12.10;93.00;;;;;;4898650;29;20215;-77
2022/03/16 12:39:12;;;;;;;24.70;19.30;;;12.20;92.40;;;;;;4899559;29;20199;-77
2022/03/16 12:44:23;;;;;;;31.77;20.27;;;12.30;91.70;;;;;;4899101;29;20179;-77
2022/03/16 12:47:15;;;;;;;23.67;18.40;;;12.60;91.40;;;;;;4897169;29;20207;-75
2022/03/16 12:49:42;;;;;;;26.90;19.35;;;12.70;90.50;;;;;;4897069;29;20179;-76
2022/03/16 12:52:09;;;;;;;27.58;19.60;;;12.80;90.30;;;;;;4897330;29;20255;-76
2022/03/16 12:54:36;;;;;;;27.77;20.17;;;12.70;87.40;;;;;;4897049;29;20235;-76
2022/03/16 12:57:09;;;;;;;26.30;19.73;;;12.60;85.90;;;;;;4897348;29;20204;-76